sensor_id;sensor_type;location;lat;lon;timestamp;temperature;humidity
39825;DHT22;25503;52.532;13.640;2022-12-10T00:01:42;-1.60;99.90
39825;DHT22;25503;52.532;13.640;2022-12-10T00:04:08;-1.60;99.90
39825;DHT22;25503;52.532;13.640;2022-12-10T00:06:36;-1.60;99.90
39825;DHT22;25503;52.532;13.640;2022-12-10T00:09:04;-1.60;99.90
39825;DHT22;25503;52.532;13.640;2022-12-10T00:11:30;-1.60;99.90
39825;DHT22;25503;52.532;13.640;2022-12-10T00:13:56;-1.60;99.90
39825;DHT22;25503;52.532;13.640;2022-12-10T00:16:24;-1.60;99.90
39825;DHT22;25503;52.532;13.640;2022-12-10T00:18:50;-1.60;99.90
39825;DHT22;25503;52.532;13.640;2022-12-10T00:21:25;-1.60;99.90
39825;DHT22;25503;52.532;13.640;2022-12-10T00:23:51;-1.60;99.90
39825;DHT22;25503;52.532;13.640;2022-12-10T00:26:21;-1.60;99.90
39825;DHT22;25503;52.532;13.640;2022-12-10T00:28:47;-1.60;99.90
39825;DHT22;25503;52.532;13.640;2022-12-10T00:31:16;-1.60;99.90
39825;DHT22;25503;52.532;13.640;2022-12-10T00:33:42;-1.60;99.90
39825;DHT22;25503;52.532;13.640;2022-12-10T00:36:20;-1.60;99.90
39825;DHT22;25503;52.532;13.640;2022-12-10T00:38:47;-1.60;99.90
39825;DHT22;25503;52.532;13.640;2022-12-10T00:41:13;-1.70;99.90
39825;DHT22;25503;52.532;13.640;2022-12-10T00:43:39;-1.60;99.90
39825;DHT22;25503;52.532;13.640;2022-12-10T00:46:05;-1.60;99.90
39825;DHT22;25503;52.532;13.640;2022-12-10T00:48:31;-1.70;99.90
39825;DHT22;25503;52.532;13.640;2022-12-10T00:51:13;-1.70;99.90
39825;DHT22;25503;52.532;13.640;2022-12-10T00:53:40;-1.70;99.90
39825;DHT22;25503;52.532;13.640;2022-12-10T00:56:08;-1.60;99.90
39825;DHT22;25503;52.532;13.640;2022-12-10T00:58:36;-1.60;99.90
39825;DHT22;25503;52.532;13.640;2022-12-10T01:01:25;-1.60;99.90
39825;DHT22;25503;52.532;13.640;2022-12-10T01:03:53;-1.60;99.90
39825;DHT22;25503;52.532;13.640;2022-12-10T01:06:30;-1.60;99.90
39825;DHT22;25503;52.532;13.640;2022-12-10T01:08:57;-1.60;99.90
39825;DHT22;25503;52.532;13.640;2022-12-10T01:11:26;-1.60;99.90
39825;DHT22;25503;52.532;13.640;2022-12-10T01:13:53;-1.60;99.90
39825;DHT22;25503;52.532;13.640;2022-12-10T01:16:20;-1.60;99.90
39825;DHT22;25503;52.532;13.640;2022-12-10T01:18:47;-1.70;99.90
39825;DHT22;25503;52.532;13.640;2022-12-10T01:21:15;-1.70;99.90
39825;DHT22;25503;52.532;13.640;2022-12-10T01:23:43;-1.60;99.90
39825;DHT22;25503;52.532;13.640;2022-12-10T01:26:11;-1.60;99.90
39825;DHT22;25503;52.532;13.640;2022-12-10T01:28:38;-1.60;99.90
39825;DHT22;25503;52.532;13.640;2022-12-10T01:31:13;-1.60;99.90
39825;DHT22;25503;52.532;13.640;2022-12-10T01:33:39;-1.60;99.90
39825;DHT22;25503;52.532;13.640;2022-12-10T01:36:08;-1.60;99.90
39825;DHT22;25503;52.532;13.640;2022-12-10T01:38:34;-1.60;99.90
39825;DHT22;25503;52.532;13.640;2022-12-10T01:41:00;-1.60;99.90
39825;DHT22;25503;52.532;13.640;2022-12-10T01:43:26;-1.60;99.90
39825;DHT22;25503;52.532;13.640;2022-12-10T01:45:52;-1.70;99.90
39825;DHT22;25503;52.532;13.640;2022-12-10T01:48:18;-1.60;99.90
39825;DHT22;25503;52.532;13.640;2022-12-10T01:50:44;-1.70;99.90
39825;DHT22;25503;52.532;13.640;2022-12-10T01:53:12;-1.70;99.90
39825;DHT22;25503;52.532;13.640;2022-12-10T01:58:14;-1.70;99.90
39825;DHT22;25503;52.532;13.640;2022-12-10T02:00:46;-1.70;99.90
39825;DHT22;25503;52.532;13.640;2022-12-10T02:03:22;-1.70;99.90
39825;DHT22;25503;52.532;13.640;2022-12-10T02:06:05;-1.70;99.90
39825;DHT22;25503;52.532;13.640;2022-12-10T02:08:43;-1.70;99.90
39825;DHT22;25503;52.532;13.640;2022-12-10T02:13:46;-1.70;99.90
39825;DHT22;25503;52.532;13.640;2022-12-10T02:16:22;-1.80;99.90
39825;DHT22;25503;52.532;13.640;2022-12-10T02:21:45;-1.80;99.90
39825;DHT22;25503;52.532;13.640;2022-12-10T02:24:14;-1.80;99.90
39825;DHT22;25503;52.532;13.640;2022-12-10T02:26:59;-1.80;99.90
39825;DHT22;25503;52.532;13.640;2022-12-10T02:29:28;-1.80;99.90
39825;DHT22;25503;52.532;13.640;2022-12-10T02:32:08;-1.80;99.90
39825;DHT22;25503;52.532;13.640;2022-12-10T02:34:40;-1.90;99.90
39825;DHT22;25503;52.532;13.640;2022-12-10T02:37:14;-1.90;99.90
39825;DHT22;25503;52.532;13.640;2022-12-10T02:39:46;-1.90;99.90
39825;DHT22;25503;52.532;13.640;2022-12-10T02:42:13;-1.90;99.90
39825;DHT22;25503;52.532;13.640;2022-12-10T02:44:40;-1.90;99.90
39825;DHT22;25503;52.532;13.640;2022-12-10T02:47:08;-2.00;99.90
39825;DHT22;25503;52.532;13.640;2022-12-10T02:49:35;-2.00;99.90
39825;DHT22;25503;52.532;13.640;2022-12-10T02:52:16;-2.00;99.90
39825;DHT22;25503;52.532;13.640;2022-12-10T02:54:44;-2.00;99.90
39825;DHT22;25503;52.532;13.640;2022-12-10T03:00:13;-2.10;99.90
39825;DHT22;25503;52.532;13.640;2022-12-10T03:06:07;-2.10;99.90
39825;DHT22;25503;52.532;13.640;2022-12-10T03:08:52;-2.10;99.90
39825;DHT22;25503;52.532;13.640;2022-12-10T03:11:22;-2.20;99.90
39825;DHT22;25503;52.532;13.640;2022-12-10T03:16:47;-2.20;99.90
39825;DHT22;25503;52.532;13.640;2022-12-10T03:19:18;-2.30;99.90
39825;DHT22;25503;52.532;13.640;2022-12-10T03:21:47;-2.30;99.90
39825;DHT22;25503;52.532;13.640;2022-12-10T03:24:16;-2.30;99.90
39825;DHT22;25503;52.532;13.640;2022-12-10T03:26:45;-2.30;99.90
39825;DHT22;25503;52.532;13.640;2022-12-10T03:29:22;-2.30;99.90
39825;DHT22;25503;52.532;13.640;2022-12-10T03:31:49;-2.30;99.90
39825;DHT22;25503;52.532;13.640;2022-12-10T03:34:16;-2.30;99.90
39825;DHT22;25503;52.532;13.640;2022-12-10T03:36:42;-2.40;99.90
39825;DHT22;25503;52.532;13.640;2022-12-10T03:39:09;-2.40;99.90
39825;DHT22;25503;52.532;13.640;2022-12-10T03:41:35;-2.40;99.90
39825;DHT22;25503;52.532;13.640;2022-12-10T03:44:01;-2.40;99.90
39825;DHT22;25503;52.532;13.640;2022-12-10T03:46:29;-2.40;99.90
39825;DHT22;25503;52.532;13.640;2022-12-10T03:48:55;-2.40;99.90
39825;DHT22;25503;52.532;13.640;2022-12-10T03:51:21;-2.40;99.90
39825;DHT22;25503;52.532;13.640;2022-12-10T03:53:47;-2.40;99.90
39825;DHT22;25503;52.532;13.640;2022-12-10T03:56:18;-2.40;99.90
39825;DHT22;25503;52.532;13.640;2022-12-10T03:58:43;-2.40;99.90
39825;DHT22;25503;52.532;13.640;2022-12-10T04:01:09;-2.50;99.90
39825;DHT22;25503;52.532;13.640;2022-12-10T04:03:36;-2.50;99.90
39825;DHT22;25503;52.532;13.640;2022-12-10T04:06:08;-2.40;99.90
39825;DHT22;25503;52.532;13.640;2022-12-10T04:08:34;-2.50;99.90
39825;DHT22;25503;52.532;13.640;2022-12-10T04:11:04;-2.40;99.90
39825;DHT22;25503;52.532;13.640;2022-12-10T04:13:32;-2.40;99.90
39825;DHT22;25503;52.532;13.640;2022-12-10T04:16:17;-2.40;99.90
39825;DHT22;25503;52.532;13.640;2022-12-10T04:19:06;-2.40;99.90
39825;DHT22;25503;52.532;13.640;2022-12-10T04:21:34;-2.40;99.90
39825;DHT22;25503;52.532;13.640;2022-12-10T04:24:20;-2.30;99.90
39825;DHT22;25503;52.532;13.640;2022-12-10T04:29:44;-2.30;99.90
39825;DHT22;25503;52.532;13.640;2022-12-10T04:32:10;-2.20;99.90
39825;DHT22;25503;52.532;13.640;2022-12-10T04:34:36;-2.20;99.90
39825;DHT22;25503;52.532;13.640;2022-12-10T04:37:03;-2.20;99.90
39825;DHT22;25503;52.532;13.640;2022-12-10T04:39:29;-2.20;99.90
39825;DHT22;25503;52.532;13.640;2022-12-10T04:41:55;-2.20;99.90
39825;DHT22;25503;52.532;13.640;2022-12-10T04:44:20;-2.10;99.90
39825;DHT22;25503;52.532;13.640;2022-12-10T04:46:47;-2.10;99.90
39825;DHT22;25503;52.532;13.640;2022-12-10T04:49:13;-2.00;99.90
39825;DHT22;25503;52.532;13.640;2022-12-10T04:51:39;-2.00;99.90
39825;DHT22;25503;52.532;13.640;2022-12-10T04:54:06;-2.00;99.90
39825;DHT22;25503;52.532;13.640;2022-12-10T04:56:32;-2.00;99.90
39825;DHT22;25503;52.532;13.640;2022-12-10T04:58:59;-1.90;99.90
39825;DHT22;25503;52.532;13.640;2022-12-10T05:01:25;-1.90;99.90
39825;DHT22;25503;52.532;13.640;2022-12-10T05:03:51;-1.90;99.90
39825;DHT22;25503;52.532;13.640;2022-12-10T05:06:17;-1.80;99.90
39825;DHT22;25503;52.532;13.640;2022-12-10T05:08:44;-1.80;99.90
39825;DHT22;25503;52.532;13.640;2022-12-10T05:11:13;-1.70;99.90
39825;DHT22;25503;52.532;13.640;2022-12-10T05:13:39;-1.70;99.90
39825;DHT22;25503;52.532;13.640;2022-12-10T05:16:07;-1.70;99.90
39825;DHT22;25503;52.532;13.640;2022-12-10T05:18:33;-1.70;99.90
39825;DHT22;25503;52.532;13.640;2022-12-10T05:20:59;-1.60;99.90
39825;DHT22;25503;52.532;13.640;2022-12-10T05:23:25;-1.60;99.90
39825;DHT22;25503;52.532;13.640;2022-12-10T05:26:18;-1.60;99.90
39825;DHT22;25503;52.532;13.640;2022-12-10T05:28:48;-1.50;99.90
39825;DHT22;25503;52.532;13.640;2022-12-10T05:31:15;-1.50;99.90
39825;DHT22;25503;52.532;13.640;2022-12-10T05:33:42;-1.50;99.90
39825;DHT22;25503;52.532;13.640;2022-12-10T05:36:09;-1.50;99.90
39825;DHT22;25503;52.532;13.640;2022-12-10T05:38:35;-1.50;99.90
39825;DHT22;25503;52.532;13.640;2022-12-10T05:41:02;-1.50;99.90
39825;DHT22;25503;52.532;13.640;2022-12-10T05:43:28;-1.40;99.90
39825;DHT22;25503;52.532;13.640;2022-12-10T05:46:01;-1.40;99.90
39825;DHT22;25503;52.532;13.640;2022-12-10T05:48:27;-1.40;99.90
39825;DHT22;25503;52.532;13.640;2022-12-10T05:50:53;-1.40;99.90
39825;DHT22;25503;52.532;13.640;2022-12-10T05:53:19;-1.40;99.90
39825;DHT22;25503;52.532;13.640;2022-12-10T05:55:44;-1.40;99.90
39825;DHT22;25503;52.532;13.640;2022-12-10T05:58:10;-1.40;99.90
39825;DHT22;25503;52.532;13.640;2022-12-10T06:00:38;-1.30;99.90
39825;DHT22;25503;52.532;13.640;2022-12-10T06:03:04;-1.40;99.90
39825;DHT22;25503;52.532;13.640;2022-12-10T06:05:36;-1.30;99.90
39825;DHT22;25503;52.532;13.640;2022-12-10T06:08:02;-1.30;99.90
39825;DHT22;25503;52.532;13.640;2022-12-10T06:10:27;-1.30;99.90
39825;DHT22;25503;52.532;13.640;2022-12-10T06:12:53;-1.30;99.90
39825;DHT22;25503;52.532;13.640;2022-12-10T06:15:18;-1.30;99.90
39825;DHT22;25503;52.532;13.640;2022-12-10T06:17:44;-1.30;99.90
39825;DHT22;25503;52.532;13.640;2022-12-10T06:20:10;-1.30;99.90
39825;DHT22;25503;52.532;13.640;2022-12-10T06:22:36;-1.30;99.90
39825;DHT22;25503;52.532;13.640;2022-12-10T06:25:01;-1.30;99.90
39825;DHT22;25503;52.532;13.640;2022-12-10T06:27:29;-1.30;99.90
39825;DHT22;25503;52.532;13.640;2022-12-10T06:29:55;-1.20;99.90
39825;DHT22;25503;52.532;13.640;2022-12-10T06:32:21;-1.20;99.90
39825;DHT22;25503;52.532;13.640;2022-12-10T06:34:46;-1.20;99.90
39825;DHT22;25503;52.532;13.640;2022-12-10T06:37:12;-1.20;99.90
39825;DHT22;25503;52.532;13.640;2022-12-10T06:39:37;-1.20;99.90
39825;DHT22;25503;52.532;13.640;2022-12-10T06:42:03;-1.20;99.90
39825;DHT22;25503;52.532;13.640;2022-12-10T06:44:29;-1.20;99.90
39825;DHT22;25503;52.532;13.640;2022-12-10T06:46:54;-1.20;99.90
39825;DHT22;25503;52.532;13.640;2022-12-10T06:49:20;-1.20;99.90
39825;DHT22;25503;52.532;13.640;2022-12-10T06:51:47;-1.20;99.90
39825;DHT22;25503;52.532;13.640;2022-12-10T06:54:13;-1.20;99.90
39825;DHT22;25503;52.532;13.640;2022-12-10T06:56:38;-1.20;99.90
39825;DHT22;25503;52.532;13.640;2022-12-10T06:59:05;-1.20;99.90
39825;DHT22;25503;52.532;13.640;2022-12-10T07:01:31;-1.20;99.90
39825;DHT22;25503;52.532;13.640;2022-12-10T07:03:57;-1.20;99.90
39825;DHT22;25503;52.532;13.640;2022-12-10T07:06:24;-1.20;99.90
39825;DHT22;25503;52.532;13.640;2022-12-10T07:08:50;-1.10;99.90
39825;DHT22;25503;52.532;13.640;2022-12-10T07:11:18;-1.20;99.90
39825;DHT22;25503;52.532;13.640;2022-12-10T07:13:44;-1.10;99.90
39825;DHT22;25503;52.532;13.640;2022-12-10T07:16:19;-1.10;99.90
39825;DHT22;25503;52.532;13.640;2022-12-10T07:18:45;-1.10;99.90
39825;DHT22;25503;52.532;13.640;2022-12-10T07:21:18;-1.10;99.90
39825;DHT22;25503;52.532;13.640;2022-12-10T07:23:45;-1.10;99.90
39825;DHT22;25503;52.532;13.640;2022-12-10T07:26:10;-1.10;99.90
39825;DHT22;25503;52.532;13.640;2022-12-10T07:28:36;-1.10;99.90
39825;DHT22;25503;52.532;13.640;2022-12-10T07:31:07;-1.10;99.90
39825;DHT22;25503;52.532;13.640;2022-12-10T07:33:33;-1.10;99.90
39825;DHT22;25503;52.532;13.640;2022-12-10T07:35:59;-1.10;99.90
39825;DHT22;25503;52.532;13.640;2022-12-10T07:38:24;-1.10;99.90
39825;DHT22;25503;52.532;13.640;2022-12-10T07:40:51;-1.10;99.90
39825;DHT22;25503;52.532;13.640;2022-12-10T07:43:17;-1.00;99.90
39825;DHT22;25503;52.532;13.640;2022-12-10T07:45:43;-1.10;99.90
39825;DHT22;25503;52.532;13.640;2022-12-10T07:48:09;-1.00;99.90
39825;DHT22;25503;52.532;13.640;2022-12-10T07:50:35;-1.00;99.90
39825;DHT22;25503;52.532;13.640;2022-12-10T07:53:01;-1.00;99.90
39825;DHT22;25503;52.532;13.640;2022-12-10T07:55:26;-1.00;99.90
39825;DHT22;25503;52.532;13.640;2022-12-10T07:57:52;-1.00;99.90
39825;DHT22;25503;52.532;13.640;2022-12-10T08:00:17;-1.00;99.90
39825;DHT22;25503;52.532;13.640;2022-12-10T08:02:43;-1.00;99.90
39825;DHT22;25503;52.532;13.640;2022-12-10T08:05:09;-1.00;99.90
39825;DHT22;25503;52.532;13.640;2022-12-10T08:07:34;-1.00;99.90
39825;DHT22;25503;52.532;13.640;2022-12-10T08:10:00;-0.90;99.90
39825;DHT22;25503;52.532;13.640;2022-12-10T08:12:26;-0.90;99.90
39825;DHT22;25503;52.532;13.640;2022-12-10T08:14:51;-0.90;99.90
39825;DHT22;25503;52.532;13.640;2022-12-10T08:17:17;-0.90;99.90
39825;DHT22;25503;52.532;13.640;2022-12-10T08:19:42;-0.90;99.90
39825;DHT22;25503;52.532;13.640;2022-12-10T08:22:08;-0.90;99.90
39825;DHT22;25503;52.532;13.640;2022-12-10T08:24:34;-0.90;99.90
39825;DHT22;25503;52.532;13.640;2022-12-10T08:27:00;-0.90;99.90
39825;DHT22;25503;52.532;13.640;2022-12-10T08:29:25;-0.90;99.90
39825;DHT22;25503;52.532;13.640;2022-12-10T08:31:51;-0.80;99.90
39825;DHT22;25503;52.532;13.640;2022-12-10T08:34:17;-0.80;99.90
39825;DHT22;25503;52.532;13.640;2022-12-10T08:36:44;-0.80;99.90
39825;DHT22;25503;52.532;13.640;2022-12-10T08:39:10;-0.80;99.90
39825;DHT22;25503;52.532;13.640;2022-12-10T08:41:41;-0.80;99.90
39825;DHT22;25503;52.532;13.640;2022-12-10T08:44:06;-0.80;99.90
39825;DHT22;25503;52.532;13.640;2022-12-10T08:46:32;-0.80;99.90
39825;DHT22;25503;52.532;13.640;2022-12-10T08:48:58;-0.80;99.90
39825;DHT22;25503;52.532;13.640;2022-12-10T08:51:24;-0.70;99.90
39825;DHT22;25503;52.532;13.640;2022-12-10T08:53:50;-0.70;99.90
39825;DHT22;25503;52.532;13.640;2022-12-10T08:56:16;-0.70;99.90
39825;DHT22;25503;52.532;13.640;2022-12-10T08:58:42;-0.70;99.90
39825;DHT22;25503;52.532;13.640;2022-12-10T09:01:10;-0.70;99.90
39825;DHT22;25503;52.532;13.640;2022-12-10T09:03:37;-0.70;99.90
39825;DHT22;25503;52.532;13.640;2022-12-10T09:06:08;-0.70;99.90
39825;DHT22;25503;52.532;13.640;2022-12-10T09:08:34;-0.70;99.90
39825;DHT22;25503;52.532;13.640;2022-12-10T09:11:12;-0.60;99.90
39825;DHT22;25503;52.532;13.640;2022-12-10T09:13:37;-0.60;99.90
39825;DHT22;25503;52.532;13.640;2022-12-10T09:16:04;-0.60;99.90
39825;DHT22;25503;52.532;13.640;2022-12-10T09:18:30;-0.60;99.90
39825;DHT22;25503;52.532;13.640;2022-12-10T09:20:55;-0.60;99.90
39825;DHT22;25503;52.532;13.640;2022-12-10T09:23:21;-0.60;99.90
39825;DHT22;25503;52.532;13.640;2022-12-10T09:25:47;-0.60;99.90
39825;DHT22;25503;52.532;13.640;2022-12-10T09:28:12;-0.60;99.90
39825;DHT22;25503;52.532;13.640;2022-12-10T09:30:38;-0.50;99.90
39825;DHT22;25503;52.532;13.640;2022-12-10T09:33:04;-0.60;99.90
39825;DHT22;25503;52.532;13.640;2022-12-10T09:35:29;-0.50;99.90
39825;DHT22;25503;52.532;13.640;2022-12-10T09:37:55;-0.50;99.90
39825;DHT22;25503;52.532;13.640;2022-12-10T09:40:45;-0.50;99.90
39825;DHT22;25503;52.532;13.640;2022-12-10T09:43:23;-0.50;99.90
39825;DHT22;25503;52.532;13.640;2022-12-10T09:46:13;-0.50;99.90
39825;DHT22;25503;52.532;13.640;2022-12-10T09:51:23;-0.40;99.90
39825;DHT22;25503;52.532;13.640;2022-12-10T09:53:51;-0.40;99.90
39825;DHT22;25503;52.532;13.640;2022-12-10T09:56:30;-0.40;99.90
39825;DHT22;25503;52.532;13.640;2022-12-10T09:59:00;-0.40;99.90
39825;DHT22;25503;52.532;13.640;2022-12-10T10:01:28;-0.40;99.90
39825;DHT22;25503;52.532;13.640;2022-12-10T10:03:54;-0.40;99.90
39825;DHT22;25503;52.532;13.640;2022-12-10T10:06:21;-0.40;99.90
39825;DHT22;25503;52.532;13.640;2022-12-10T10:08:58;-0.40;99.90
39825;DHT22;25503;52.532;13.640;2022-12-10T10:11:33;-0.40;99.90
39825;DHT22;25503;52.532;13.640;2022-12-10T10:14:04;-0.30;99.90
39825;DHT22;25503;52.532;13.640;2022-12-10T10:16:52;-0.30;99.90
39825;DHT22;25503;52.532;13.640;2022-12-10T10:19:33;-0.30;99.90
39825;DHT22;25503;52.532;13.640;2022-12-10T10:22:00;-0.30;99.90
39825;DHT22;25503;52.532;13.640;2022-12-10T10:24:35;-0.30;99.90
39825;DHT22;25503;52.532;13.640;2022-12-10T10:27:15;-0.30;99.90
39825;DHT22;25503;52.532;13.640;2022-12-10T10:29:44;-0.30;99.90
39825;DHT22;25503;52.532;13.640;2022-12-10T10:32:17;-0.30;99.90
39825;DHT22;25503;52.532;13.640;2022-12-10T10:34:44;-0.30;99.90
39825;DHT22;25503;52.532;13.640;2022-12-10T10:37:30;-0.30;99.90
39825;DHT22;25503;52.532;13.640;2022-12-10T10:39:57;-0.20;99.90
39825;DHT22;25503;52.532;13.640;2022-12-10T10:42:35;-0.20;99.90
39825;DHT22;25503;52.532;13.640;2022-12-10T10:45:03;-0.20;99.90
39825;DHT22;25503;52.532;13.640;2022-12-10T10:47:34;-0.20;99.90
39825;DHT22;25503;52.532;13.640;2022-12-10T10:50:03;-0.20;99.90
39825;DHT22;25503;52.532;13.640;2022-12-10T10:52:35;-0.20;99.90
39825;DHT22;25503;52.532;13.640;2022-12-10T10:55:01;-0.20;99.90
39825;DHT22;25503;52.532;13.640;2022-12-10T10:57:35;-0.20;99.90
39825;DHT22;25503;52.532;13.640;2022-12-10T11:00:22;-0.20;99.90
39825;DHT22;25503;52.532;13.640;2022-12-10T11:02:48;-0.20;99.90
39825;DHT22;25503;52.532;13.640;2022-12-10T11:05:26;-0.20;99.90
39825;DHT22;25503;52.532;13.640;2022-12-10T11:08:01;-0.20;99.90
39825;DHT22;25503;52.532;13.640;2022-12-10T11:10:28;-0.20;99.90
39825;DHT22;25503;52.532;13.640;2022-12-10T11:13:24;-0.20;99.90
39825;DHT22;25503;52.532;13.640;2022-12-10T11:16:18;-0.20;99.90
39825;DHT22;25503;52.532;13.640;2022-12-10T11:19:01;-0.20;99.90
39825;DHT22;25503;52.532;13.640;2022-12-10T11:21:32;-0.20;99.90
39825;DHT22;25503;52.532;13.640;2022-12-10T11:24:00;-0.20;99.90
39825;DHT22;25503;52.532;13.640;2022-12-10T11:26:50;-0.20;99.90
39825;DHT22;25503;52.532;13.640;2022-12-10T11:29:55;-0.10;99.90
39825;DHT22;25503;52.532;13.640;2022-12-10T11:32:32;-0.10;99.90
39825;DHT22;25503;52.532;13.640;2022-12-10T11:37:42;-0.10;99.90
39825;DHT22;25503;52.532;13.640;2022-12-10T11:40:28;0.00;99.90
39825;DHT22;25503;52.532;13.640;2022-12-10T11:43:11;-0.10;99.90
39825;DHT22;25503;52.532;13.640;2022-12-10T11:52:07;0.00;99.90
39825;DHT22;25503;52.532;13.640;2022-12-10T11:57:53;0.00;99.90
39825;DHT22;25503;52.532;13.640;2022-12-10T12:00:26;0.00;99.90
39825;DHT22;25503;52.532;13.640;2022-12-10T12:03:24;0.00;99.90
39825;DHT22;25503;52.532;13.640;2022-12-10T12:17:43;-0.10;99.90
39825;DHT22;25503;52.532;13.640;2022-12-10T12:20:23;-0.10;99.90
39825;DHT22;25503;52.532;13.640;2022-12-10T12:22:58;-0.10;99.90
39825;DHT22;25503;52.532;13.640;2022-12-10T12:25:47;-0.10;99.90
39825;DHT22;25503;52.532;13.640;2022-12-10T12:28:32;-0.10;99.90
39825;DHT22;25503;52.532;13.640;2022-12-10T12:31:21;-0.10;99.90
39825;DHT22;25503;52.532;13.640;2022-12-10T12:33:51;-0.10;99.90
39825;DHT22;25503;52.532;13.640;2022-12-10T12:36:28;-0.10;99.90
39825;DHT22;25503;52.532;13.640;2022-12-10T12:39:05;-0.10;99.90
39825;DHT22;25503;52.532;13.640;2022-12-10T12:44:56;-0.10;99.90
39825;DHT22;25503;52.532;13.640;2022-12-10T12:50:41;-0.10;99.90
39825;DHT22;25503;52.532;13.640;2022-12-10T12:53:20;-0.10;99.90
39825;DHT22;25503;52.532;13.640;2022-12-10T13:03:58;-0.20;99.90
39825;DHT22;25503;52.532;13.640;2022-12-10T13:06:29;-0.20;99.90
39825;DHT22;25503;52.532;13.640;2022-12-10T13:11:44;-0.10;99.90
39825;DHT22;25503;52.532;13.640;2022-12-10T13:14:15;-0.10;99.90
39825;DHT22;25503;52.532;13.640;2022-12-10T13:29:54;-0.20;99.90
39825;DHT22;25503;52.532;13.640;2022-12-10T13:32:42;-0.20;99.90
39825;DHT22;25503;52.532;13.640;2022-12-10T13:37:35;-0.20;99.90
39825;DHT22;25503;52.532;13.640;2022-12-10T13:42:38;-0.10;99.90
39825;DHT22;25503;52.532;13.640;2022-12-10T13:47:50;-0.10;99.90
39825;DHT22;25503;52.532;13.640;2022-12-10T13:50:29;-0.20;99.90
39825;DHT22;25503;52.532;13.640;2022-12-10T14:07:12;-0.20;99.90
39825;DHT22;25503;52.532;13.640;2022-12-10T14:09:46;-0.20;99.90
39825;DHT22;25503;52.532;13.640;2022-12-10T14:12:21;-0.20;99.90
39825;DHT22;25503;52.532;13.640;2022-12-10T14:14:57;-0.30;99.90
39825;DHT22;25503;52.532;13.640;2022-12-10T14:17:40;-0.30;99.90
39825;DHT22;25503;52.532;13.640;2022-12-10T14:20:32;-0.30;99.90
39825;DHT22;25503;52.532;13.640;2022-12-10T14:23:27;-0.30;99.90
39825;DHT22;25503;52.532;13.640;2022-12-10T14:26:16;-0.30;99.90
39825;DHT22;25503;52.532;13.640;2022-12-10T14:28:57;-0.30;99.90
39825;DHT22;25503;52.532;13.640;2022-12-10T14:31:34;-0.30;99.90
39825;DHT22;25503;52.532;13.640;2022-12-10T14:34:34;-0.30;99.90
39825;DHT22;25503;52.532;13.640;2022-12-10T14:37:03;-0.30;99.90
39825;DHT22;25503;52.532;13.640;2022-12-10T14:39:32;-0.30;99.90
39825;DHT22;25503;52.532;13.640;2022-12-10T14:42:01;-0.30;99.90
39825;DHT22;25503;52.532;13.640;2022-12-10T14:44:28;-0.30;99.90
39825;DHT22;25503;52.532;13.640;2022-12-10T14:47:10;-0.30;99.90
39825;DHT22;25503;52.532;13.640;2022-12-10T14:49:42;-0.30;99.90
39825;DHT22;25503;52.532;13.640;2022-12-10T14:52:22;-0.30;99.90
39825;DHT22;25503;52.532;13.640;2022-12-10T14:54:49;-0.30;99.90
39825;DHT22;25503;52.532;13.640;2022-12-10T14:57:30;-0.30;99.90
39825;DHT22;25503;52.532;13.640;2022-12-10T15:00:03;-0.30;99.90
39825;DHT22;25503;52.532;13.640;2022-12-10T15:02:34;-0.30;99.90
39825;DHT22;25503;52.532;13.640;2022-12-10T15:05:26;-0.30;99.90
39825;DHT22;25503;52.532;13.640;2022-12-10T15:08:02;-0.30;99.90
39825;DHT22;25503;52.532;13.640;2022-12-10T15:10:43;-0.30;99.90
39825;DHT22;25503;52.532;13.640;2022-12-10T15:13:22;-0.30;99.90
39825;DHT22;25503;52.532;13.640;2022-12-10T15:15:50;-0.30;99.90
39825;DHT22;25503;52.532;13.640;2022-12-10T15:18:19;-0.40;99.90
39825;DHT22;25503;52.532;13.640;2022-12-10T15:20:52;-0.30;99.90
39825;DHT22;25503;52.532;13.640;2022-12-10T15:26:24;-0.30;99.90
39825;DHT22;25503;52.532;13.640;2022-12-10T15:28:52;-0.40;99.90
39825;DHT22;25503;52.532;13.640;2022-12-10T15:31:38;-0.40;99.90
39825;DHT22;25503;52.532;13.640;2022-12-10T15:34:11;-0.40;99.90
39825;DHT22;25503;52.532;13.640;2022-12-10T15:41:50;-0.40;99.90
39825;DHT22;25503;52.532;13.640;2022-12-10T15:47:17;-0.40;99.90
39825;DHT22;25503;52.532;13.640;2022-12-10T15:49:43;-0.40;99.90
39825;DHT22;25503;52.532;13.640;2022-12-10T15:52:20;-0.40;99.90
39825;DHT22;25503;52.532;13.640;2022-12-10T15:54:48;-0.40;99.90
39825;DHT22;25503;52.532;13.640;2022-12-10T15:57:24;-0.40;99.90
39825;DHT22;25503;52.532;13.640;2022-12-10T15:59:53;-0.40;99.90
39825;DHT22;25503;52.532;13.640;2022-12-10T16:02:39;-0.40;99.90
39825;DHT22;25503;52.532;13.640;2022-12-10T16:05:27;-0.40;99.90
39825;DHT22;25503;52.532;13.640;2022-12-10T16:07:55;-0.40;99.90
39825;DHT22;25503;52.532;13.640;2022-12-10T16:10:24;-0.40;99.90
39825;DHT22;25503;52.532;13.640;2022-12-10T16:13:05;-0.40;99.90
39825;DHT22;25503;52.532;13.640;2022-12-10T16:15:42;-0.40;99.90
39825;DHT22;25503;52.532;13.640;2022-12-10T16:18:09;-0.40;99.90
39825;DHT22;25503;52.532;13.640;2022-12-10T16:20:35;-0.40;99.90
39825;DHT22;25503;52.532;13.640;2022-12-10T16:23:01;-0.40;99.90
39825;DHT22;25503;52.532;13.640;2022-12-10T16:25:29;-0.40;99.90
39825;DHT22;25503;52.532;13.640;2022-12-10T16:27:56;-0.40;99.90
39825;DHT22;25503;52.532;13.640;2022-12-10T16:30:28;-0.40;99.90
39825;DHT22;25503;52.532;13.640;2022-12-10T16:32:54;-0.40;99.90
39825;DHT22;25503;52.532;13.640;2022-12-10T16:35:20;-0.40;99.90
39825;DHT22;25503;52.532;13.640;2022-12-10T16:37:47;-0.40;99.90
39825;DHT22;25503;52.532;13.640;2022-12-10T16:40:24;-0.40;99.90
39825;DHT22;25503;52.532;13.640;2022-12-10T16:42:51;-0.40;99.90
39825;DHT22;25503;52.532;13.640;2022-12-10T16:45:37;-0.40;99.90
39825;DHT22;25503;52.532;13.640;2022-12-10T16:48:11;-0.40;99.90
39825;DHT22;25503;52.532;13.640;2022-12-10T16:50:38;-0.40;99.90
39825;DHT22;25503;52.532;13.640;2022-12-10T16:53:29;-0.40;99.90
39825;DHT22;25503;52.532;13.640;2022-12-10T16:56:13;-0.40;99.90
39825;DHT22;25503;52.532;13.640;2022-12-10T16:58:40;-0.40;99.90
39825;DHT22;25503;52.532;13.640;2022-12-10T17:01:23;-0.40;99.90
39825;DHT22;25503;52.532;13.640;2022-12-10T17:03:51;-0.40;99.90
39825;DHT22;25503;52.532;13.640;2022-12-10T17:06:18;-0.40;99.90
39825;DHT22;25503;52.532;13.640;2022-12-10T17:08:44;-0.40;99.90
39825;DHT22;25503;52.532;13.640;2022-12-10T17:14:00;-0.40;99.90
39825;DHT22;25503;52.532;13.640;2022-12-10T17:16:27;-0.40;99.90
39825;DHT22;25503;52.532;13.640;2022-12-10T17:18:53;-0.40;99.90
39825;DHT22;25503;52.532;13.640;2022-12-10T17:21:19;-0.40;99.90
39825;DHT22;25503;52.532;13.640;2022-12-10T17:23:45;-0.40;99.90
39825;DHT22;25503;52.532;13.640;2022-12-10T17:26:23;-0.40;99.90
39825;DHT22;25503;52.532;13.640;2022-12-10T17:28:54;-0.40;99.90
39825;DHT22;25503;52.532;13.640;2022-12-10T17:31:24;-0.40;99.90